sensor_id;sensor_type;location;lat;lon;timestamp;pressure;altitude;pressure_sealevel;temperature;humidity
55032;BME280;40928;51.076;7.950;2023-05-23T00:00:24;97048.59;;;14.27;100.00
55032;BME280;40928;51.076;7.950;2023-05-23T00:02:50;97050.47;;;14.27;100.00
55032;BME280;40928;51.076;7.950;2023-05-23T00:05:15;97052.34;;;14.21;100.00
55032;BME280;40928;51.076;7.950;2023-05-23T00:07:43;97054.72;;;14.18;100.00
55032;BME280;40928;51.076;7.950;2023-05-23T00:10:10;97049.56;;;14.06;100.00
55032;BME280;40928;51.076;7.950;2023-05-23T00:12:35;97051.44;;;14.00;100.00
55032;BME280;40928;51.076;7.950;2023-05-23T00:15:04;97055.97;;;13.99;100.00
55032;BME280;40928;51.076;7.950;2023-05-23T00:17:32;97055.69;;;13.96;100.00
55032;BME280;40928;51.076;7.950;2023-05-23T00:19:57;97062.41;;;13.93;100.00
55032;BME280;40928;51.076;7.950;2023-05-23T00:22:23;97066.41;;;13.91;100.00
55032;BME280;40928;51.076;7.950;2023-05-23T00:24:48;97075.50;;;13.90;100.00
55032;BME280;40928;51.076;7.950;2023-05-23T00:27:14;97073.34;;;13.86;100.00
55032;BME280;40928;51.076;7.950;2023-05-23T00:29:40;97079.25;;;13.89;100.00
55032;BME280;40928;51.076;7.950;2023-05-23T00:32:05;97075.78;;;13.88;100.00
55032;BME280;40928;51.076;7.950;2023-05-23T00:34:31;97078.50;;;13.93;100.00
55032;BME280;40928;51.076;7.950;2023-05-23T00:36:56;97084.41;;;13.95;100.00
55032;BME280;40928;51.076;7.950;2023-05-23T00:39:22;97074.44;;;13.85;100.00
55032;BME280;40928;51.076;7.950;2023-05-23T00:41:49;97078.75;;;13.92;100.00
55032;BME280;40928;51.076;7.950;2023-05-23T00:44:15;97078.19;;;13.90;100.00
55032;BME280;40928;51.076;7.950;2023-05-23T00:46:42;97079.25;;;13.89;100.00
55032;BME280;40928;51.076;7.950;2023-05-23T00:49:10;97076.03;;;13.86;100.00
55032;BME280;40928;51.076;7.950;2023-05-23T00:51:38;97070.13;;;13.84;100.00
55032;BME280;40928;51.076;7.950;2023-05-23T00:54:06;97064.22;;;13.82;100.00
55032;BME280;40928;51.076;7.950;2023-05-23T00:56:32;97063.09;;;13.78;100.00
55032;BME280;40928;51.076;7.950;2023-05-23T00:58:58;97074.63;;;13.74;100.00
55032;BME280;40928;51.076;7.950;2023-05-23T01:01:25;97052.25;;;13.63;100.00
55032;BME280;40928;51.076;7.950;2023-05-23T01:03:51;97062.50;;;13.66;100.00
55032;BME280;40928;51.076;7.950;2023-05-23T01:06:17;97065.97;;;13.66;100.00
55032;BME280;40928;51.076;7.950;2023-05-23T01:08:43;97073.78;;;13.68;100.00
55032;BME280;40928;51.076;7.950;2023-05-23T01:11:18;97079.38;;;13.66;100.00
55032;BME280;40928;51.076;7.950;2023-05-23T01:13:58;97074.53;;;13.63;100.00
55032;BME280;40928;51.076;7.950;2023-05-23T01:19:37;97074.22;;;13.60;100.00
55032;BME280;40928;51.076;7.950;2023-05-23T01:22:15;97068.31;;;13.58;100.00
55032;BME280;40928;51.076;7.950;2023-05-23T01:27:56;97076.28;;;13.47;100.00
55032;BME280;40928;51.076;7.950;2023-05-23T01:30:24;97075.44;;;13.42;100.00
55032;BME280;40928;51.076;7.950;2023-05-23T01:32:53;97076.25;;;13.42;100.00
55032;BME280;40928;51.076;7.950;2023-05-23T01:35:26;97083.00;;;13.45;100.00
55032;BME280;40928;51.076;7.950;2023-05-23T01:37:54;97074.69;;;13.46;100.00
55032;BME280;40928;51.076;7.950;2023-05-23T01:40:20;97082.78;;;13.51;100.00
55032;BME280;40928;51.076;7.950;2023-05-23T01:42:46;97085.75;;;13.55;100.00
55032;BME280;40928;51.076;7.950;2023-05-23T01:45:14;97084.94;;;13.54;100.00
55032;BME280;40928;51.076;7.950;2023-05-23T01:47:41;97079.59;;;13.54;100.00
55032;BME280;40928;51.076;7.950;2023-05-23T01:50:08;97091.09;;;13.55;100.00
55032;BME280;40928;51.076;7.950;2023-05-23T01:52:35;97078.72;;;13.49;100.00
55032;BME280;40928;51.076;7.950;2023-05-23T01:55:02;97081.94;;;13.51;100.00
55032;BME280;40928;51.076;7.950;2023-05-23T01:57:31;97066.81;;;13.39;100.00
55032;BME280;40928;51.076;7.950;2023-05-23T01:59:58;97074.13;;;13.44;100.00
55032;BME280;40928;51.076;7.950;2023-05-23T02:02:23;97084.28;;;13.42;100.00
55032;BME280;40928;51.076;7.950;2023-05-23T02:04:49;97084.84;;;13.44;100.00
55032;BME280;40928;51.076;7.950;2023-05-23T02:07:17;97082.44;;;13.43;100.00
55032;BME280;40928;51.076;7.950;2023-05-23T02:09:47;97081.88;;;13.40;100.00
55032;BME280;40928;51.076;7.950;2023-05-23T02:12:13;97084.28;;;13.42;100.00
55032;BME280;40928;51.076;7.950;2023-05-23T02:14:39;97081.22;;;13.33;100.00
55032;BME280;40928;51.076;7.950;2023-05-23T02:17:07;97083.13;;;13.33;100.00
55032;BME280;40928;51.076;7.950;2023-05-23T02:19:36;97087.13;;;13.30;100.00
55032;BME280;40928;51.076;7.950;2023-05-23T02:22:01;97089.50;;;13.27;100.00
55032;BME280;40928;51.076;7.950;2023-05-23T02:24:27;97092.72;;;13.29;100.00
55032;BME280;40928;51.076;7.950;2023-05-23T02:26:53;97094.34;;;13.30;100.00
55032;BME280;40928;51.076;7.950;2023-05-23T02:29:19;97101.88;;;13.33;100.00
55032;BME280;40928;51.076;7.950;2023-05-23T02:31:44;97099.22;;;13.33;100.00
55032;BME280;40928;51.076;7.950;2023-05-23T02:34:10;97101.63;;;13.34;100.00
55032;BME280;40928;51.076;7.950;2023-05-23T02:36:36;97107.53;;;13.36;100.00
55032;BME280;40928;51.076;7.950;2023-05-23T02:39:04;97114.81;;;13.36;100.00
55032;BME280;40928;51.076;7.950;2023-05-23T02:41:30;97107.53;;;13.36;100.00
55032;BME280;40928;51.076;7.950;2023-05-23T02:43:57;97111.56;;;13.34;100.00
55032;BME280;40928;51.076;7.950;2023-05-23T02:46:22;97115.50;;;13.26;100.00
55032;BME280;40928;51.076;7.950;2023-05-23T02:48:48;97119.69;;;13.17;100.00
55032;BME280;40928;51.076;7.950;2023-05-23T02:51:14;97113.97;;;13.08;100.00
55032;BME280;40928;51.076;7.950;2023-05-23T02:53:39;97110.69;;;13.01;100.00
55032;BME280;40928;51.076;7.950;2023-05-23T02:56:06;97121.25;;;12.85;100.00
55032;BME280;40928;51.076;7.950;2023-05-23T02:58:33;97119.81;;;12.77;100.00
55032;BME280;40928;51.076;7.950;2023-05-23T03:01:03;97114.78;;;12.81;100.00
55032;BME280;40928;51.076;7.950;2023-05-23T03:03:29;97102.06;;;12.71;100.00
55032;BME280;40928;51.076;7.950;2023-05-23T03:06:00;97124.75;;;12.63;100.00
55032;BME280;40928;51.076;7.950;2023-05-23T03:08:26;97108.44;;;12.65;100.00
55032;BME280;40928;51.076;7.950;2023-05-23T03:10:51;97107.88;;;12.63;100.00
55032;BME280;40928;51.076;7.950;2023-05-23T03:13:17;97118.09;;;12.66;100.00
55032;BME280;40928;51.076;7.950;2023-05-23T03:15:43;97118.59;;;12.63;100.00
55032;BME280;40928;51.076;7.950;2023-05-23T03:18:09;97121.50;;;12.61;100.00
55032;BME280;40928;51.076;7.950;2023-05-23T03:20:35;97119.09;;;12.60;100.00
55032;BME280;40928;51.076;7.950;2023-05-23T03:23:01;97123.66;;;12.59;100.00
55032;BME280;40928;51.076;7.950;2023-05-23T03:25:26;97121.50;;;12.61;100.00
55032;BME280;40928;51.076;7.950;2023-05-23T03:27:53;97122.25;;;12.57;100.00
55032;BME280;40928;51.076;7.950;2023-05-23T03:30:19;97126.31;;;12.59;100.00
55032;BME280;40928;51.076;7.950;2023-05-23T03:32:44;97125.81;;;12.62;100.00
55032;BME280;40928;51.076;7.950;2023-05-23T03:35:11;97124.75;;;12.63;100.00
55032;BME280;40928;51.076;7.950;2023-05-23T03:37:37;97121.84;;;12.65;100.00
55032;BME280;40928;51.076;7.950;2023-05-23T03:40:03;97125.06;;;12.67;100.00
55032;BME280;40928;51.076;7.950;2023-05-23T03:42:30;97138.47;;;12.67;100.00
55032;BME280;40928;51.076;7.950;2023-05-23T03:44:55;97129.59;;;12.67;100.00
55032;BME280;40928;51.076;7.950;2023-05-23T03:47:22;97121.84;;;12.65;100.00
55032;BME280;40928;51.076;7.950;2023-05-23T03:49:49;97127.94;;;12.60;100.00
55032;BME280;40928;51.076;7.950;2023-05-23T03:52:15;97135.41;;;12.58;100.00
55032;BME280;40928;51.076;7.950;2023-05-23T03:54:41;97133.22;;;12.55;100.00
55032;BME280;40928;51.076;7.950;2023-05-23T03:57:07;97126.75;;;12.51;100.00
55032;BME280;40928;51.076;7.950;2023-05-23T03:59:34;97137.84;;;12.60;100.00
55032;BME280;40928;51.076;7.950;2023-05-23T04:02:00;97137.28;;;12.58;100.00
55032;BME280;40928;51.076;7.950;2023-05-23T04:04:29;97129.50;;;12.56;100.00
55032;BME280;40928;51.076;7.950;2023-05-23T04:06:55;97135.66;;;12.57;100.00
55032;BME280;40928;51.076;7.950;2023-05-23T04:09:22;97134.09;;;12.61;100.00
55032;BME280;40928;51.076;7.950;2023-05-23T04:11:50;97137.28;;;12.58;100.00
55032;BME280;40928;51.076;7.950;2023-05-23T04:14:17;97132.66;;;12.53;100.00
55032;BME280;40928;51.076;7.950;2023-05-23T04:16:47;97137.22;;;12.53;100.00
55032;BME280;40928;51.076;7.950;2023-05-23T04:19:13;97142.88;;;12.56;100.00
55032;BME280;40928;51.076;7.950;2023-05-23T04:21:38;97143.38;;;12.53;100.00
55032;BME280;40928;51.076;7.950;2023-05-23T04:24:07;97127.78;;;12.50;100.00
55032;BME280;40928;51.076;7.950;2023-05-23T04:26:33;97137.53;;;12.56;100.00
55032;BME280;40928;51.076;7.950;2023-05-23T04:29:02;97142.88;;;12.56;100.00
55032;BME280;40928;51.076;7.950;2023-05-23T04:31:30;97132.41;;;12.55;100.00
55032;BME280;40928;51.076;7.950;2023-05-23T04:33:55;97144.50;;;12.57;100.00
55032;BME280;40928;51.076;7.950;2023-05-23T04:36:22;97139.94;;;12.58;100.00
55032;BME280;40928;51.076;7.950;2023-05-23T04:38:52;97140.44;;;12.55;100.00
55032;BME280;40928;51.076;7.950;2023-05-23T04:41:18;97145.06;;;12.59;100.00
55032;BME280;40928;51.076;7.950;2023-05-23T04:44:04;97136.84;;;12.66;100.00
55032;BME280;40928;51.076;7.950;2023-05-23T04:47:02;97148.66;;;12.70;100.00
55032;BME280;40928;51.076;7.950;2023-05-23T04:49:41;97144.63;;;12.68;100.00
55032;BME280;40928;51.076;7.950;2023-05-23T04:52:08;97140.31;;;12.67;100.00
55032;BME280;40928;51.076;7.950;2023-05-23T04:54:37;97144.06;;;12.66;100.00
55032;BME280;40928;51.076;7.950;2023-05-23T04:57:10;97150.47;;;12.64;100.00
55032;BME280;40928;51.076;7.950;2023-05-23T04:59:37;97145.94;;;12.65;100.00
55032;BME280;40928;51.076;7.950;2023-05-23T05:02:04;97151.53;;;12.63;100.00
55032;BME280;40928;51.076;7.950;2023-05-23T05:04:30;97139.94;;;12.58;100.00
55032;BME280;40928;51.076;7.950;2023-05-23T05:06:56;97145.13;;;12.64;100.00
55032;BME280;40928;51.076;7.950;2023-05-23T05:09:30;97144.06;;;12.66;100.00
55032;BME280;40928;51.076;7.950;2023-05-23T05:11:57;97151.88;;;12.67;100.00
55032;BME280;40928;51.076;7.950;2023-05-23T05:14:27;97155.91;;;12.70;100.00
55032;BME280;40928;51.076;7.950;2023-05-23T05:16:53;97152.97;;;12.71;100.00
55032;BME280;40928;51.076;7.950;2023-05-23T05:19:25;97157.03;;;12.74;100.00
55032;BME280;40928;51.076;7.950;2023-05-23T05:21:50;97155.34;;;12.68;100.00
55032;BME280;40928;51.076;7.950;2023-05-23T05:24:16;97153.72;;;12.67;100.00
55032;BME280;40928;51.076;7.950;2023-05-23T05:26:45;97160.09;;;12.60;100.00
55032;BME280;40928;51.076;7.950;2023-05-23T05:29:12;97154.97;;;12.59;100.00
55032;BME280;40928;51.076;7.950;2023-05-23T05:31:38;97164.94;;;12.63;100.00
55032;BME280;40928;51.076;7.950;2023-05-23T05:34:05;97163.56;;;12.61;100.00
55032;BME280;40928;51.076;7.950;2023-05-23T05:36:31;97165.97;;;12.62;100.00
55032;BME280;40928;51.076;7.950;2023-05-23T05:38:57;97166.56;;;12.64;100.00
55032;BME280;40928;51.076;7.950;2023-05-23T05:41:22;97171.03;;;12.59;100.00
55032;BME280;40928;51.076;7.950;2023-05-23T05:43:50;97168.44;;;12.64;100.00
55032;BME280;40928;51.076;7.950;2023-05-23T05:46:16;97172.97;;;12.63;100.00
55032;BME280;40928;51.076;7.950;2023-05-23T05:48:43;97177.84;;;12.67;100.00
55032;BME280;40928;51.076;7.950;2023-05-23T05:51:11;97174.28;;;12.61;100.00
55032;BME280;40928;51.076;7.950;2023-05-23T05:53:38;97179.94;;;12.64;100.00
55032;BME280;40928;51.076;7.950;2023-05-23T05:56:04;97186.13;;;12.65;100.00
55032;BME280;40928;51.076;7.950;2023-05-23T05:58:31;97183.69;;;12.63;100.00
55032;BME280;40928;51.076;7.950;2023-05-23T06:01:00;97185.75;;;12.56;100.00
55032;BME280;40928;51.076;7.950;2023-05-23T06:03:25;97180.44;;;12.61;100.00
55032;BME280;40928;51.076;7.950;2023-05-23T06:05:53;97183.69;;;12.63;100.00
55032;BME280;40928;51.076;7.950;2023-05-23T06:08:20;97187.09;;;12.59;100.00
55032;BME280;40928;51.076;7.950;2023-05-23T06:10:47;97186.63;;;12.62;100.00
55032;BME280;40928;51.076;7.950;2023-05-23T06:13:13;97181.25;;;12.62;100.00
55032;BME280;40928;51.076;7.950;2023-05-23T06:15:42;97183.13;;;12.61;100.00
55032;BME280;40928;51.076;7.950;2023-05-23T06:18:08;97184.69;;;12.57;100.00
55032;BME280;40928;51.076;7.950;2023-05-23T06:20:35;97170.41;;;12.52;100.00
55032;BME280;40928;51.076;7.950;2023-05-23T06:23:03;97179.94;;;12.64;100.00
55032;BME280;40928;51.076;7.950;2023-05-23T06:25:30;97187.50;;;12.68;100.00
55032;BME280;40928;51.076;7.950;2023-05-23T06:27:56;97186.50;;;12.74;100.00
55032;BME280;40928;51.076;7.950;2023-05-23T06:30:22;97185.69;;;12.73;100.00
55032;BME280;40928;51.076;7.950;2023-05-23T06:32:48;97188.31;;;12.68;100.00
55032;BME280;40928;51.076;7.950;2023-05-23T06:35:14;97186.34;;;12.63;100.00
55032;BME280;40928;51.076;7.950;2023-05-23T06:37:39;97187.09;;;12.59;100.00
55032;BME280;40928;51.076;7.950;2023-05-23T06:40:11;97192.78;;;12.62;100.00
55032;BME280;40928;51.076;7.950;2023-05-23T06:42:36;97201.94;;;12.67;100.00
55032;BME280;40928;51.076;7.950;2023-05-23T06:45:09;97206.72;;;12.64;100.00
55032;BME280;40928;51.076;7.950;2023-05-23T06:47:36;97196.19;;;12.58;100.00
55032;BME280;40928;51.076;7.950;2023-05-23T06:50:02;97208.81;;;12.57;100.00
55032;BME280;40928;51.076;7.950;2023-05-23T06:52:28;97211.72;;;12.56;100.00
55032;BME280;40928;51.076;7.950;2023-05-23T06:54:53;97210.81;;;12.50;100.00
55032;BME280;40928;51.076;7.950;2023-05-23T06:57:19;97218.88;;;12.50;100.00
55032;BME280;40928;51.076;7.950;2023-05-23T06:59:45;97231.63;;;12.43;100.00
55032;BME280;40928;51.076;7.950;2023-05-23T07:02:11;97220.09;;;12.42;100.00
55032;BME280;40928;51.076;7.950;2023-05-23T07:04:37;97231.69;;;12.48;100.00
55032;BME280;40928;51.076;7.950;2023-05-23T07:07:08;97235.84;;;12.39;100.00
55032;BME280;40928;51.076;7.950;2023-05-23T07:09:34;97231.22;;;12.34;100.00
55032;BME280;40928;51.076;7.950;2023-05-23T07:12:07;97233.16;;;12.39;100.00
55032;BME280;40928;51.076;7.950;2023-05-23T07:14:36;97229.66;;;12.38;100.00
55032;BME280;40928;51.076;7.950;2023-05-23T07:17:04;97231.84;;;12.41;100.00
55032;BME280;40928;51.076;7.950;2023-05-23T07:19:30;97241.50;;;12.42;100.00
55032;BME280;40928;51.076;7.950;2023-05-23T07:21:56;97242.66;;;12.46;100.00
55032;BME280;40928;51.076;7.950;2023-05-23T07:24:21;97241.03;;;12.45;100.00
55032;BME280;40928;51.076;7.950;2023-05-23T07:26:47;97241.34;;;12.49;100.00
55032;BME280;40928;51.076;7.950;2023-05-23T07:29:13;97233.00;;;12.45;100.00
55032;BME280;40928;51.076;7.950;2023-05-23T07:31:39;97235.41;;;12.47;100.00
55032;BME280;40928;51.076;7.950;2023-05-23T07:34:06;97235.41;;;12.47;100.00
55032;BME280;40928;51.076;7.950;2023-05-23T07:36:58;97245.41;;;12.52;100.00
55032;BME280;40928;51.076;7.950;2023-05-23T07:39:25;97240.59;;;12.54;100.00
55032;BME280;40928;51.076;7.950;2023-05-23T07:41:56;97243.06;;;12.55;100.00
55032;BME280;40928;51.076;7.950;2023-05-23T07:44:21;97241.84;;;12.46;100.00
55032;BME280;40928;51.076;7.950;2023-05-23T07:46:47;97248.81;;;12.47;100.00
55032;BME280;40928;51.076;7.950;2023-05-23T07:49:13;97255.78;;;12.48;100.00
55032;BME280;40928;51.076;7.950;2023-05-23T07:51:39;97249.38;;;12.49;100.00
55032;BME280;40928;51.076;7.950;2023-05-23T07:54:06;97248.91;;;12.52;100.00
55032;BME280;40928;51.076;7.950;2023-05-23T07:56:31;97254.25;;;12.52;100.00
55032;BME280;40928;51.076;7.950;2023-05-23T07:58:57;97251.31;;;12.54;100.00
55032;BME280;40928;51.076;7.950;2023-05-23T08:01:23;97259.34;;;12.54;100.00
55032;BME280;40928;51.076;7.950;2023-05-23T08:04:05;97261.22;;;12.53;100.00
55032;BME280;40928;51.076;7.950;2023-05-23T08:06:36;97264.72;;;12.54;100.00
55032;BME280;40928;51.076;7.950;2023-05-23T08:09:08;97265.22;;;12.51;100.00
55032;BME280;40928;51.076;7.950;2023-05-23T08:11:39;97268.13;;;12.49;100.00
55032;BME280;40928;51.076;7.950;2023-05-23T08:14:05;97261.66;;;12.45;100.00
55032;BME280;40928;51.076;7.950;2023-05-23T08:16:37;97278.84;;;12.49;100.00
55032;BME280;40928;51.076;7.950;2023-05-23T08:19:06;97273.97;;;12.46;100.00
55032;BME280;40928;51.076;7.950;2023-05-23T08:21:34;97290.28;;;12.44;100.00
55032;BME280;40928;51.076;7.950;2023-05-23T08:24:00;97295.56;;;12.39;100.00
55032;BME280;40928;51.076;7.950;2023-05-23T08:26:26;97292.41;;;12.25;100.00
55032;BME280;40928;51.076;7.950;2023-05-23T08:29:02;97297.44;;;12.22;100.00
55032;BME280;40928;51.076;7.950;2023-05-23T08:31:30;97298.41;;;12.15;100.00
55032;BME280;40928;51.076;7.950;2023-05-23T08:33:56;97302.72;;;12.16;100.00
55032;BME280;40928;51.076;7.950;2023-05-23T08:36:22;97300.19;;;12.10;100.00
55032;BME280;40928;51.076;7.950;2023-05-23T08:38:49;97301.25;;;12.09;100.00
55032;BME280;40928;51.076;7.950;2023-05-23T08:41:26;97298.16;;;12.17;100.00
55032;BME280;40928;51.076;7.950;2023-05-23T08:44:00;97304.00;;;12.14;100.00
55032;BME280;40928;51.076;7.950;2023-05-23T08:46:32;97307.97;;;12.11;100.00
55032;BME280;40928;51.076;7.950;2023-05-23T08:48:58;97306.69;;;12.14;100.00
55032;BME280;40928;51.076;7.950;2023-05-23T08:51:26;97311.22;;;12.13;100.00
55032;BME280;40928;51.076;7.950;2023-05-23T08:53:54;97321.19;;;12.18;100.00
55032;BME280;40928;51.076;7.950;2023-05-23T08:56:23;97321.13;;;12.13;100.00
55032;BME280;40928;51.076;7.950;2023-05-23T08:58:51;97331.31;;;12.16;100.00
55032;BME280;40928;51.076;7.950;2023-05-23T09:01:19;97333.22;;;12.15;100.00
55032;BME280;40928;51.076;7.950;2023-05-23T09:03:50;97333.31;;;12.21;100.00
55032;BME280;40928;51.076;7.950;2023-05-23T09:06:21;97335.81;;;12.27;100.00
55032;BME280;40928;51.076;7.950;2023-05-23T09:08:47;97334.84;;;12.33;100.00
55032;BME280;40928;51.076;7.950;2023-05-23T09:11:15;97343.94;;;12.32;100.00
55032;BME280;40928;51.076;7.950;2023-05-23T09:13:43;97338.00;;;12.30;100.00
55032;BME280;40928;51.076;7.950;2023-05-23T09:16:14;97338.34;;;12.34;100.00
55032;BME280;40928;51.076;7.950;2023-05-23T09:18:49;97350.91;;;12.33;100.00
55032;BME280;40928;51.076;7.950;2023-05-23T09:21:15;97340.19;;;12.33;100.00
55032;BME280;40928;51.076;7.950;2023-05-23T09:23:53;97347.00;;;12.24;100.00
55032;BME280;40928;51.076;7.950;2023-05-23T09:26:21;97354.47;;;12.22;100.00
55032;BME280;40928;51.076;7.950;2023-05-23T09:28:47;97338.94;;;12.07;100.00
55032;BME280;40928;51.076;7.950;2023-05-23T09:31:13;97345.44;;;12.11;100.00
55032;BME280;40928;51.076;7.950;2023-05-23T09:36:07;97349.00;;;12.00;100.00
55032;BME280;40928;51.076;7.950;2023-05-23T09:38:38;97351.06;;;11.98;100.00
55032;BME280;40928;51.076;7.950;2023-05-23T09:41:04;97353.09;;;11.91;100.00
55032;BME280;40928;51.076;7.950;2023-05-23T09:43:30;97359.97;;;11.86;100.00
55032;BME280;40928;51.076;7.950;2023-05-23T09:46:15;97354.91;;;11.73;100.00
55032;BME280;40928;51.076;7.950;2023-05-23T09:48:48;97354.66;;;11.75;100.00
55032;BME280;40928;51.076;7.950;2023-05-23T09:51:18;97358.47;;;11.79;100.00
55032;BME280;40928;51.076;7.950;2023-05-23T09:53:45;97352.22;;;11.73;100.00
55032;BME280;40928;51.076;7.950;2023-05-23T09:56:11;97356.28;;;11.76;100.00
55032;BME280;40928;51.076;7.950;2023-05-23T09:58:38;97360.69;;;11.82;100.00
55032;BME280;40928;51.076;7.950;2023-05-23T10:01:08;97368.22;;;11.85;100.00
55032;BME280;40928;51.076;7.950;2023-05-23T10:06:23;97362.78;;;11.80;100.00
55032;BME280;40928;51.076;7.950;2023-05-23T10:08:54;97371.94;;;11.84;100.00
55032;BME280;40928;51.076;7.950;2023-05-23T10:14:28;97364.47;;;11.86;100.00
55032;BME280;40928;51.076;7.950;2023-05-23T10:17:01;97367.16;;;11.86;100.00
55032;BME280;40928;51.076;7.950;2023-05-23T10:19:43;97371.00;;;11.90;100.00
55032;BME280;40928;51.076;7.950;2023-05-23T10:22:13;97375.03;;;11.93;100.00
55032;BME280;40928;51.076;7.950;2023-05-23T10:24:40;97375.41;;;11.96;100.00
55032;BME280;40928;51.076;7.950;2023-05-23T10:27:07;97378.75;;;12.03;100.00
55032;BME280;40928;51.076;7.950;2023-05-23T10:29:33;97378.88;;;12.09;100.00
55032;BME280;40928;51.076;7.950;2023-05-23T10:32:00;97374.09;;;12.11;100.00
55032;BME280;40928;51.076;7.950;2023-05-23T10:34:33;97387.69;;;12.09;100.00
55032;BME280;40928;51.076;7.950;2023-05-23T10:37:03;97378.63;;;12.10;100.00
55032;BME280;40928;51.076;7.950;2023-05-23T10:45:17;97382.75;;;11.89;100.00
55032;BME280;40928;51.076;7.950;2023-05-23T10:47:43;97388.56;;;11.86;100.00
55032;BME280;40928;51.076;7.950;2023-05-23T10:50:12;97393.69;;;11.87;100.00
55032;BME280;40928;51.076;7.950;2023-05-23T10:52:42;97395.53;;;11.87;100.00
55032;BME280;40928;51.076;7.950;2023-05-23T10:55:15;97396.59;;;11.86;100.00
55032;BME280;40928;51.076;7.950;2023-05-23T10:57:43;97393.00;;;11.80;100.00
55032;BME280;40928;51.076;7.950;2023-05-23T11:00:15;97398.28;;;11.75;100.00
55032;BME280;40928;51.076;7.950;2023-05-23T11:03:08;97399.69;;;11.66;100.00
55032;BME280;40928;51.076;7.950;2023-05-23T11:05:35;97403.66;;;11.63;100.00
55032;BME280;40928;51.076;7.950;2023-05-23T11:08:12;97409.84;;;11.52;100.00
55032;BME280;40928;51.076;7.950;2023-05-23T11:11:00;97416.59;;;11.42;100.00
55032;BME280;40928;51.076;7.950;2023-05-23T11:16:39;97426.69;;;11.40;100.00
55032;BME280;40928;51.076;7.950;2023-05-23T11:21:44;97421.22;;;11.47;100.00
55032;BME280;40928;51.076;7.950;2023-05-23T11:24:09;97427.41;;;11.48;100.00
55032;BME280;40928;51.076;7.950;2023-05-23T11:26:35;97427.97;;;11.50;100.00
55032;BME280;40928;51.076;7.950;2023-05-23T11:29:01;97426.34;;;11.49;100.00
55032;BME280;40928;51.076;7.950;2023-05-23T11:31:28;97427.28;;;11.42;100.00
55032;BME280;40928;51.076;7.950;2023-05-23T11:33:54;97427.28;;;11.42;100.00
55032;BME280;40928;51.076;7.950;2023-05-23T11:36:23;97429.72;;;11.44;100.00
55032;BME280;40928;51.076;7.950;2023-05-23T11:38:51;97427.97;;;11.50;100.00
55032;BME280;40928;51.076;7.950;2023-05-23T11:41:17;97434.50;;;11.42;100.00
55032;BME280;40928;51.076;7.950;2023-05-23T11:43:52;97437.63;;;11.39;100.00
55032;BME280;40928;51.076;7.950;2023-05-23T11:46:19;97436.72;;;11.33;100.00
55032;BME280;40928;51.076;7.950;2023-05-23T11:48:47;97441.81;;;11.35;100.00
55032;BME280;40928;51.076;7.950;2023-05-23T11:51:16;97437.50;;;11.22;100.00
55032;BME280;40928;51.076;7.950;2023-05-23T11:53:41;97450.44;;;11.13;100.00
55032;BME280;40928;51.076;7.950;2023-05-23T11:56:07;97447.84;;;11.06;100.00
55032;BME280;40928;51.076;7.950;2023-05-23T11:58:35;97454.25;;;10.93;100.00
55032;BME280;40928;51.076;7.950;2023-05-23T12:01:02;97462.59;;;10.97;100.00
55032;BME280;40928;51.076;7.950;2023-05-23T12:03:29;97465.13;;;10.92;100.00
55032;BME280;40928;51.076;7.950;2023-05-23T12:05:56;97463.78;;;11.01;100.00
55032;BME280;40928;51.076;7.950;2023-05-23T12:08:22;97465.50;;;11.07;100.00
55032;BME280;40928;51.076;7.950;2023-05-23T12:10:55;97467.84;;;11.16;100.00
55032;BME280;40928;51.076;7.950;2023-05-23T12:13:26;97464.72;;;11.19;100.00
55032;BME280;40928;51.076;7.950;2023-05-23T12:15:54;97469.94;;;11.14;100.00
55032;BME280;40928;51.076;7.950;2023-05-23T12:18:20;97467.84;;;11.16;100.00
55032;BME280;40928;51.076;7.950;2023-05-23T12:20:48;97472.16;;;11.17;100.00
55032;BME280;40928;51.076;7.950;2023-05-23T12:23:21;97470.75;;;11.14;100.00
55032;BME280;40928;51.076;7.950;2023-05-23T12:25:55;97476.19;;;11.07;100.00
55032;BME280;40928;51.076;7.950;2023-05-23T12:28:39;97481.75;;;10.94;100.00
55032;BME280;40928;51.076;7.950;2023-05-23T12:33:40;97491.75;;;10.99;100.00
55032;BME280;40928;51.076;7.950;2023-05-23T12:36:08;97492.91;;;10.91;100.00
55032;BME280;40928;51.076;7.950;2023-05-23T12:38:34;97490.81;;;10.93;100.00
55032;BME280;40928;51.076;7.950;2023-05-23T12:41:16;97490.25;;;11.03;100.00
55032;BME280;40928;51.076;7.950;2023-05-23T12:43:51;97487.59;;;11.15;100.00
55032;BME280;40928;51.076;7.950;2023-05-23T12:46:17;97489.81;;;11.41;100.00
55032;BME280;40928;51.076;7.950;2023-05-23T12:48:43;97491.09;;;11.63;100.00
55032;BME280;40928;51.076;7.950;2023-05-23T12:51:08;97491.53;;;11.83;100.00
55032;BME280;40928;51.076;7.950;2023-05-23T12:53:34;97487.78;;;12.08;100.00
55032;BME280;40928;51.076;7.950;2023-05-23T12:56:00;97480.44;;;12.15;100.00
55032;BME280;40928;51.076;7.950;2023-05-23T12:58:26;97470.47;;;12.11;100.00
55032;BME280;40928;51.076;7.950;2023-05-23T13:00:52;97468.38;;;12.42;100.00
55032;BME280;40928;51.076;7.950;2023-05-23T13:03:18;97475.78;;;12.52;100.00
55032;BME280;40928;51.076;7.950;2023-05-23T13:05:43;97476.84;;;12.22;100.00
55032;BME280;40928;51.076;7.950;2023-05-23T13:08:09;97478.09;;;12.19;100.00
55032;BME280;40928;51.076;7.950;2023-05-23T13:10:36;97478.03;;;12.14;100.00
55032;BME280;40928;51.076;7.950;2023-05-23T13:13:03;97469.44;;;12.00;100.00
55032;BME280;40928;51.076;7.950;2023-05-23T13:15:28;97487.63;;;11.74;100.00
55032;BME280;40928;51.076;7.950;2023-05-23T13:17:54;97478.41;;;11.46;100.00
55032;BME280;40928;51.076;7.950;2023-05-23T13:20:20;97491.56;;;11.48;100.00
55032;BME280;40928;51.076;7.950;2023-05-23T13:22:46;97477.25;;;11.54;100.00